createdAt,value
2023-03-28T00:00:47.900Z,0.59
2023-03-28T00:03:19.278Z,0.55
2023-03-28T00:05:50.379Z,0.48
2023-03-28T00:08:19.099Z,0.52
2023-03-28T00:10:47.391Z,0.46
2023-03-28T00:13:19.648Z,0.53
2023-03-28T00:15:48.188Z,0.45
2023-03-28T00:18:17.796Z,0.46
2023-03-28T00:20:45.984Z,0.40
2023-03-28T00:23:14.826Z,0.36
2023-03-28T00:25:43.480Z,0.36
2023-03-28T00:28:11.796Z,0.31
2023-03-28T00:30:40.097Z,0.30
2023-03-28T00:33:08.846Z,0.27
2023-03-28T00:35:38.561Z,0.27
2023-03-28T00:38:06.866Z,0.27
2023-03-28T00:40:38.744Z,0.21
2023-03-28T00:43:07.286Z,0.17
2023-03-28T00:45:35.539Z,0.21
2023-03-28T00:48:06.764Z,0.29
2023-03-28T00:50:48.603Z,0.25
2023-03-28T00:53:18.696Z,0.41
2023-03-28T00:55:48.279Z,0.43
2023-03-28T00:58:18.496Z,0.31
2023-03-28T01:00:47.325Z,0.38
2023-03-28T01:03:16.224Z,0.33
2023-03-28T01:05:47.788Z,0.26
2023-03-28T01:08:19.756Z,0.18
2023-03-28T01:10:48.526Z,0.16
2023-03-28T01:13:18.960Z,0.15
2023-03-28T01:15:50.083Z,0.05
2023-03-28T01:18:22.511Z,0.00
2023-03-28T01:21:03.050Z,-0.09
2023-03-28T01:23:50.774Z,-0.09
2023-03-28T01:26:33.667Z,-0.09
2023-03-28T01:29:14.452Z,-0.04
2023-03-28T01:31:50.723Z,-0.11
2023-03-28T01:34:35.118Z,-0.07
2023-03-28T01:37:13.399Z,-0.10
2023-03-28T01:39:48.541Z,-0.11
2023-03-28T01:42:21.281Z,-0.16
2023-03-28T01:44:53.382Z,-0.09
2023-03-28T01:47:26.531Z,-0.09
2023-03-28T01:50:02.050Z,-0.10
2023-03-28T01:52:36.589Z,-0.10
2023-03-28T01:55:08.044Z,0.01
2023-03-28T01:57:39.885Z,-0.06
2023-03-28T02:00:12.624Z,-0.13
2023-03-28T02:02:43.408Z,-0.28
2023-03-28T02:05:15.477Z,-0.30
2023-03-28T02:07:46.797Z,-0.29
2023-03-28T02:10:16.355Z,-0.24
2023-03-28T02:12:47.019Z,-0.28
2023-03-28T02:15:16.987Z,-0.38
2023-03-28T02:17:49.223Z,-0.42
2023-03-28T02:20:19.321Z,-0.50
2023-03-28T02:22:50.962Z,-0.58
2023-03-28T02:25:19.305Z,-0.69
2023-03-28T02:27:48.942Z,-0.74
2023-03-28T02:30:17.708Z,-0.80
2023-03-28T02:32:49.606Z,-0.86
2023-03-28T02:35:18.774Z,-0.90
2023-03-28T02:37:54.678Z,-0.98
2023-03-28T02:40:31.761Z,-1.07
2023-03-28T02:43:08.515Z,-1.06
2023-03-28T02:46:00.480Z,-1.10
2023-03-28T02:48:37.898Z,-1.14
2023-03-28T02:51:13.453Z,-1.16
2023-03-28T02:53:46.942Z,-1.19
2023-03-28T02:56:17.453Z,-1.13
2023-03-28T02:58:49.477Z,-1.19
2023-03-28T03:01:17.703Z,-1.24
2023-03-28T03:03:48.193Z,-1.26
2023-03-28T03:06:18.062Z,-1.29
2023-03-28T03:08:47.604Z,-1.36
2023-03-28T03:11:15.809Z,-1.36
2023-03-28T03:13:44.390Z,-1.37
2023-03-28T03:16:12.527Z,-1.44
2023-03-28T03:18:40.873Z,-1.36
2023-03-28T03:21:09.252Z,-1.40
2023-03-28T03:23:37.483Z,-1.33
2023-03-28T03:26:07.375Z,-1.33
2023-03-28T03:28:35.571Z,-1.38
2023-03-28T03:31:03.800Z,-1.43
2023-03-28T03:33:32.727Z,-1.42
2023-03-28T03:36:01.086Z,-1.44
2023-03-28T03:38:29.839Z,-1.44
2023-03-28T03:40:58.021Z,-1.35
2023-03-28T03:43:28.770Z,-1.39
2023-03-28T03:45:57.714Z,-1.43
2023-03-28T03:48:26.042Z,-1.45
2023-03-28T03:50:54.227Z,-1.36
2023-03-28T03:53:22.364Z,-1.34
2023-03-28T03:55:50.454Z,-1.39
2023-03-28T03:58:20.536Z,-1.44
2023-03-28T04:00:50.534Z,-1.45
2023-03-28T04:03:23.900Z,-1.52
2023-03-28T04:05:55.077Z,-1.55
2023-03-28T04:08:23.421Z,-1.58
2023-03-28T04:10:51.921Z,-1.52
2023-03-28T04:13:20.386Z,-1.55
2023-03-28T04:15:49.892Z,-1.52
2023-03-28T04:18:20.373Z,-1.49
2023-03-28T04:20:53.703Z,-1.50
2023-03-28T04:23:25.681Z,-1.49
2023-03-28T04:25:55.215Z,-1.58
2023-03-28T04:28:25.989Z,-1.63
2023-03-28T04:30:58.068Z,-1.53
2023-03-28T04:33:26.596Z,-1.51
2023-03-28T04:35:57.356Z,-1.55
2023-03-28T04:38:27.087Z,-1.53
2023-03-28T04:40:57.848Z,-1.44
2023-03-28T04:43:26.361Z,-1.45
2023-03-28T04:46:03.854Z,-1.42
2023-03-28T04:48:32.225Z,-1.42
2023-03-28T04:51:00.505Z,-1.38
2023-03-28T04:53:28.709Z,-1.41
2023-03-28T04:55:56.864Z,-1.46
2023-03-28T04:58:25.135Z,-1.45
2023-03-28T05:00:53.857Z,-1.44
2023-03-28T05:03:24.418Z,-1.35
2023-03-28T05:05:53.524Z,-1.34
2023-03-28T05:08:23.571Z,-1.24
2023-03-28T05:10:51.991Z,-1.31
2023-03-28T05:13:23.057Z,-1.33
2023-03-28T05:15:51.178Z,-1.28
2023-03-28T05:18:19.356Z,-1.07
2023-03-28T05:20:48.790Z,-1.14
2023-03-28T05:23:17.076Z,-1.14
2023-03-28T05:25:45.184Z,-1.13
2023-03-28T05:28:13.340Z,-1.18
2023-03-28T05:30:41.662Z,-1.24
2023-03-28T05:33:09.822Z,-1.28
2023-03-28T05:35:39.162Z,-1.28
2023-03-28T05:38:08.953Z,-1.26
2023-03-28T05:40:37.343Z,-1.29
2023-03-28T05:43:05.721Z,-1.22
2023-03-28T05:45:34.034Z,-1.23
2023-03-28T05:48:02.347Z,-1.28
2023-03-28T05:50:30.637Z,-1.24
2023-03-28T05:52:58.692Z,-1.18
2023-03-28T05:55:28.258Z,-1.10
2023-03-28T05:57:57.622Z,-1.08
2023-03-28T06:00:26.780Z,-1.04
2023-03-28T06:02:55.507Z,-1.03
2023-03-28T06:05:23.852Z,-0.96
2023-03-28T06:07:52.296Z,-0.99
2023-03-28T06:10:21.080Z,-1.00
2023-03-28T06:12:50.659Z,-0.97
2023-03-28T06:15:18.842Z,-0.94
2023-03-28T06:17:47.001Z,-0.89
2023-03-28T06:20:15.240Z,-0.82
2023-03-28T06:22:43.556Z,-0.69
2023-03-28T06:25:13.907Z,-0.45
2023-03-28T06:27:42.209Z,-0.28
2023-03-28T06:30:12.599Z,-0.15
2023-03-28T06:32:41.091Z,0.03
2023-03-28T06:35:09.559Z,0.22
2023-03-28T06:37:37.806Z,0.37
2023-03-28T06:40:07.097Z,0.56
2023-03-28T06:42:35.927Z,0.65
2023-03-28T06:45:04.634Z,0.85
2023-03-28T06:47:34.226Z,1.06
2023-03-28T06:50:02.368Z,1.26
2023-03-28T06:52:30.831Z,1.49
2023-03-28T06:54:59.793Z,1.56
2023-03-28T06:57:28.064Z,1.77
2023-03-28T06:59:56.213Z,1.90
2023-03-28T07:02:24.490Z,2.11
2023-03-28T07:04:55.562Z,2.26
2023-03-28T07:07:23.652Z,2.49
2023-03-28T07:09:54.491Z,2.77
2023-03-28T07:12:22.908Z,2.88
2023-03-28T07:14:51.300Z,3.77
2023-03-28T07:17:19.922Z,5.40
2023-03-28T07:19:51.253Z,6.51
2023-03-28T07:22:20.983Z,7.94
2023-03-28T07:24:50.548Z,8.99
2023-03-28T07:27:19.576Z,10.38
2023-03-28T07:29:47.741Z,10.52
2023-03-28T07:32:16.738Z,11.34
2023-03-28T07:34:45.011Z,12.60
2023-03-28T07:37:13.328Z,12.97
2023-03-28T07:39:43.751Z,13.43
2023-03-28T07:42:12.278Z,13.68
2023-03-28T07:44:42.256Z,13.80
2023-03-28T07:47:11.052Z,14.01
2023-03-28T07:49:39.478Z,14.53
2023-03-28T07:52:07.985Z,13.02
2023-03-28T07:54:36.733Z,13.53
2023-03-28T07:57:07.054Z,14.90
2023-03-28T07:59:35.323Z,16.01
2023-03-28T08:02:03.721Z,17.01
2023-03-28T08:04:32.096Z,17.70
2023-03-28T08:07:00.253Z,17.10
2023-03-28T08:09:28.569Z,17.09
2023-03-28T08:11:56.750Z,16.25
2023-03-28T08:14:26.430Z,15.39
2023-03-28T08:16:54.531Z,15.84
2023-03-28T08:19:22.766Z,15.33
2023-03-28T08:21:51.162Z,16.82
2023-03-28T08:24:29.033Z,17.23
2023-03-28T08:27:08.172Z,16.03
2023-03-28T08:29:37.608Z,16.28
2023-03-28T08:32:07.429Z,19.33
2023-03-28T08:34:35.943Z,21.11
2023-03-28T08:37:05.424Z,21.84
2023-03-28T08:39:35.707Z,19.32
2023-03-28T08:42:22.411Z,18.23
2023-03-28T08:44:57.133Z,19.19
2023-03-28T08:47:27.646Z,17.78
2023-03-28T08:49:57.773Z,17.51
2023-03-28T08:52:26.245Z,16.03
2023-03-28T08:54:59.003Z,15.07
2023-03-28T08:57:29.226Z,13.70
2023-03-28T09:00:10.321Z,13.42
2023-03-28T09:02:38.658Z,12.44
2023-03-28T09:05:21.887Z,11.95
2023-03-28T09:07:55.730Z,13.64
2023-03-28T09:10:28.404Z,13.40
2023-03-28T09:13:04.632Z,12.14
2023-03-28T09:15:43.384Z,10.43
2023-03-28T09:18:25.027Z,9.83
2023-03-28T09:20:54.794Z,8.96
2023-03-28T09:23:37.357Z,8.13
2023-03-28T09:26:08.353Z,7.76
2023-03-28T09:28:41.363Z,8.14
2023-03-28T09:31:13.494Z,8.83
2023-03-28T09:33:45.260Z,8.98
2023-03-28T09:36:14.650Z,8.91
2023-03-28T09:38:46.631Z,8.70
2023-03-28T09:41:17.780Z,8.97
2023-03-28T09:43:48.630Z,9.65
2023-03-28T09:46:22.224Z,10.18
2023-03-28T09:48:50.910Z,9.73
2023-03-28T09:51:20.396Z,10.23
2023-03-28T09:53:48.663Z,9.30
2023-03-28T09:56:24.045Z,9.60
2023-03-28T09:58:53.534Z,9.36
2023-03-28T10:01:30.892Z,9.03
2023-03-28T10:04:00.088Z,9.77
2023-03-28T10:06:29.744Z,9.44
2023-03-28T10:09:09.492Z,9.03
2023-03-28T10:11:52.379Z,8.85
2023-03-28T10:14:31.076Z,8.44
2023-03-28T10:17:02.124Z,8.77
2023-03-28T10:19:33.413Z,11.23
2023-03-28T10:22:03.109Z,10.38
2023-03-28T10:24:32.797Z,9.22
2023-03-28T10:27:07.914Z,9.67
2023-03-28T10:29:38.082Z,12.55
2023-03-28T10:32:07.987Z,13.08
2023-03-28T10:34:36.966Z,13.03
2023-03-28T10:37:22.316Z,11.41
2023-03-28T10:39:59.535Z,10.81
2023-03-28T10:42:27.842Z,11.01
2023-03-28T10:45:02.849Z,11.27
2023-03-28T10:47:34.702Z,10.50
2023-03-28T10:50:03.097Z,10.68
2023-03-28T10:52:35.720Z,10.08
2023-03-28T10:55:09.610Z,9.35
2023-03-28T10:57:41.921Z,10.03
2023-03-28T11:00:14.867Z,14.08
2023-03-28T11:02:52.531Z,13.82
2023-03-28T11:05:35.696Z,16.20
2023-03-28T11:08:11.676Z,18.50
2023-03-28T11:10:43.142Z,21.30
2023-03-28T11:13:21.762Z,20.96
2023-03-28T11:15:54.715Z,20.88
2023-03-28T11:18:30.064Z,18.83
2023-03-28T11:21:08.709Z,17.57
2023-03-28T11:23:48.966Z,15.69
2023-03-28T11:26:19.794Z,18.08
2023-03-28T11:28:58.734Z,17.32
2023-03-28T11:31:30.561Z,15.35
2023-03-28T11:34:02.942Z,16.39
2023-03-28T11:36:34.280Z,16.88
2023-03-28T11:39:06.204Z,17.18
2023-03-28T11:41:36.512Z,17.83
2023-03-28T11:44:10.566Z,17.76
2023-03-28T11:46:42.571Z,18.63
2023-03-28T11:49:18.225Z,19.43
2023-03-28T11:51:47.900Z,20.55
2023-03-28T11:54:18.555Z,20.93
2023-03-28T11:56:51.256Z,17.57
2023-03-28T11:59:24.534Z,17.53
2023-03-28T12:01:56.247Z,16.49
2023-03-28T12:04:28.997Z,16.00
2023-03-28T12:07:04.646Z,16.17
2023-03-28T12:09:35.640Z,15.29
2023-03-28T12:12:07.541Z,16.14
2023-03-28T12:14:38.020Z,15.37
2023-03-28T12:17:16.836Z,15.46
2023-03-28T12:19:48.392Z,14.75
2023-03-28T12:22:26.845Z,14.88
2023-03-28T12:24:58.949Z,14.63
2023-03-28T12:27:36.663Z,14.47
2023-03-28T12:30:09.992Z,13.82
2023-03-28T12:32:44.144Z,12.68
2023-03-28T12:35:15.647Z,12.39
2023-03-28T12:37:58.571Z,11.02
2023-03-28T12:40:30.578Z,12.13
2023-03-28T12:43:00.216Z,11.04
2023-03-28T12:45:39.306Z,12.25
2023-03-28T12:48:09.550Z,12.42
2023-03-28T12:50:46.527Z,12.68
2023-03-28T12:53:15.837Z,12.38
2023-03-28T12:55:46.060Z,12.75
2023-03-28T12:58:29.744Z,12.43
2023-03-28T13:01:16.794Z,12.02
2023-03-28T13:03:52.202Z,11.72
2023-03-28T13:06:28.902Z,12.22
2023-03-28T13:09:05.250Z,12.87
2023-03-28T13:11:38.905Z,11.73
2023-03-28T13:14:14.206Z,13.41
2023-03-28T13:16:47.106Z,13.32
2023-03-28T13:19:18.611Z,13.61
2023-03-28T13:21:51.578Z,12.50
2023-03-28T13:24:29.448Z,13.22
2023-03-28T13:26:58.680Z,12.76
2023-03-28T13:29:43.602Z,12.67
2023-03-28T13:32:17.784Z,12.52
2023-03-28T13:34:48.652Z,13.78
2023-03-28T13:37:23.425Z,13.31
2023-03-28T13:39:53.745Z,13.67
2023-03-28T13:42:30.948Z,13.55
2023-03-28T13:45:01.526Z,12.19
2023-03-28T13:47:34.395Z,12.10
2023-03-28T13:50:07.914Z,10.62
2023-03-28T13:52:39.339Z,10.54
2023-03-28T13:55:16.589Z,10.92
2023-03-28T13:57:45.075Z,10.76
2023-03-28T14:00:16.276Z,10.91
2023-03-28T14:02:49.617Z,10.71
2023-03-28T14:05:20.426Z,10.07
2023-03-28T14:07:50.864Z,9.62
2023-03-28T14:10:37.083Z,9.64
2023-03-28T14:13:07.550Z,9.92
2023-03-28T14:15:37.389Z,10.45
2023-03-28T14:18:06.094Z,10.27
2023-03-28T14:20:34.904Z,10.33
2023-03-28T14:23:06.127Z,10.55
2023-03-28T14:25:34.419Z,10.73
2023-03-28T14:28:07.445Z,10.82
2023-03-28T14:30:39.222Z,11.00
2023-03-28T14:33:16.300Z,11.20
2023-03-28T14:35:45.671Z,11.68
2023-03-28T14:38:16.795Z,11.99
2023-03-28T14:40:46.602Z,11.80
2023-03-28T14:43:20.846Z,11.62
2023-03-28T14:45:54.109Z,11.74
2023-03-28T14:48:24.421Z,11.71
2023-03-28T14:50:53.882Z,12.43
2023-03-28T14:53:24.343Z,13.36
2023-03-28T14:55:54.494Z,13.26
2023-03-28T14:58:23.916Z,12.20
2023-03-28T15:00:54.281Z,12.03
2023-03-28T15:03:23.993Z,11.11
2023-03-28T15:05:54.767Z,11.40
2023-03-28T15:08:28.414Z,11.55
2023-03-28T15:11:00.298Z,11.29
2023-03-28T15:13:33.814Z,11.58
2023-03-28T15:16:05.275Z,11.01
2023-03-28T15:18:38.375Z,10.89
2023-03-28T15:21:08.069Z,10.46
2023-03-28T15:23:41.065Z,11.01
2023-03-28T15:26:13.036Z,11.19
2023-03-28T15:28:41.362Z,11.42
2023-03-28T15:31:11.217Z,10.90
2023-03-28T15:33:39.756Z,10.23
2023-03-28T15:36:09.736Z,10.34
2023-03-28T15:38:41.568Z,9.91
2023-03-28T15:41:19.455Z,9.86
2023-03-28T15:43:58.853Z,9.55
2023-03-28T15:46:31.945Z,9.27
2023-03-28T15:49:01.236Z,9.28
2023-03-28T15:51:30.806Z,9.20
2023-03-28T15:54:03.299Z,9.22
2023-03-28T15:56:32.596Z,9.24
2023-03-28T15:59:02.565Z,9.16
2023-03-28T16:01:31.968Z,9.14
2023-03-28T16:04:16.340Z,9.25
2023-03-28T16:06:45.384Z,9.05
2023-03-28T16:09:17.973Z,9.13
2023-03-28T16:11:47.564Z,9.08
2023-03-28T16:14:17.178Z,8.91
2023-03-28T16:16:45.420Z,8.90
2023-03-28T16:19:18.121Z,9.00
2023-03-28T16:21:47.003Z,8.99
2023-03-28T16:24:16.651Z,8.94
2023-03-28T16:26:45.166Z,8.81
2023-03-28T16:29:16.782Z,8.95
2023-03-28T16:31:45.220Z,8.85
2023-03-28T16:34:13.558Z,8.88
2023-03-28T16:36:41.812Z,8.63
2023-03-28T16:39:11.045Z,8.64
2023-03-28T16:41:40.879Z,8.60
2023-03-28T16:44:09.274Z,8.72
2023-03-28T16:46:38.077Z,8.68
2023-03-28T16:49:06.294Z,8.72
2023-03-28T16:51:34.616Z,8.61
2023-03-28T16:54:03.293Z,8.62
2023-03-28T16:56:32.413Z,8.48
2023-03-28T16:59:03.680Z,8.47
2023-03-28T17:01:32.728Z,8.51
2023-03-28T17:04:00.909Z,8.46
2023-03-28T17:06:29.560Z,8.41
2023-03-28T17:08:58.875Z,8.32
2023-03-28T17:11:27.567Z,8.34
2023-03-28T17:13:56.080Z,8.41
2023-03-28T17:16:26.174Z,8.39
2023-03-28T17:18:54.707Z,8.38
2023-03-28T17:21:23.065Z,8.38
2023-03-28T17:23:52.710Z,8.44
2023-03-28T17:26:21.466Z,8.32
2023-03-28T17:28:50.917Z,8.33
2023-03-28T17:31:21.081Z,8.27
2023-03-28T17:33:51.192Z,8.22
2023-03-28T17:36:22.015Z,8.24
2023-03-28T17:38:51.506Z,8.13
2023-03-28T17:41:22.978Z,8.08
2023-03-28T17:43:51.983Z,8.07
2023-03-28T17:46:21.209Z,8.23
2023-03-28T17:48:50.952Z,8.08
2023-03-28T17:51:19.437Z,8.12
2023-03-28T17:53:48.474Z,8.07
2023-03-28T17:56:17.165Z,8.03
2023-03-28T17:58:46.736Z,7.95
2023-03-28T18:01:18.528Z,7.98
2023-03-28T18:03:48.279Z,7.88
2023-03-28T18:06:18.123Z,7.93
2023-03-28T18:08:46.575Z,7.99
2023-03-28T18:11:15.708Z,8.01
2023-03-28T18:13:44.799Z,7.95
2023-03-28T18:16:14.685Z,7.87
2023-03-28T18:18:42.994Z,7.78
2023-03-28T18:21:12.714Z,7.73
2023-03-28T18:23:42.787Z,7.78
2023-03-28T18:26:12.013Z,7.83
2023-03-28T18:28:40.734Z,7.83
2023-03-28T18:31:10.015Z,7.81
2023-03-28T18:33:38.738Z,7.77
2023-03-28T18:36:07.592Z,7.73
2023-03-28T18:38:38.234Z,7.70
2023-03-28T18:41:09.083Z,7.78
2023-03-28T18:43:38.207Z,7.81
2023-03-28T18:46:07.792Z,7.82
2023-03-28T18:48:36.993Z,7.76
2023-03-28T18:51:06.563Z,7.82
2023-03-28T18:53:35.361Z,7.81
2023-03-28T18:56:04.745Z,7.86
2023-03-28T18:58:36.703Z,7.76
2023-03-28T19:01:05.909Z,7.73
2023-03-28T19:03:38.469Z,7.70
2023-03-28T19:06:07.709Z,7.73
2023-03-28T19:08:35.889Z,7.75
2023-03-28T19:11:11.680Z,7.73
2023-03-28T19:13:41.589Z,7.59
2023-03-28T19:16:11.571Z,7.52
2023-03-28T19:18:41.073Z,7.60
2023-03-28T19:21:11.130Z,7.73
2023-03-28T19:23:40.173Z,7.67
2023-03-28T19:26:09.244Z,7.64
2023-03-28T19:28:39.112Z,7.51
2023-03-28T19:31:09.615Z,7.61
2023-03-28T19:33:38.546Z,7.62
2023-03-28T19:36:07.802Z,7.68
2023-03-28T19:38:38.001Z,7.73
2023-03-28T19:41:10.714Z,7.63
2023-03-28T19:43:41.548Z,7.44
2023-03-28T19:46:13.006Z,7.21
2023-03-28T19:48:41.575Z,6.96
2023-03-28T19:51:10.302Z,6.75
2023-03-28T19:53:38.669Z,6.58
2023-03-28T19:56:07.316Z,6.43
2023-03-28T19:58:36.002Z,6.30
2023-03-28T20:01:04.735Z,6.24
2023-03-28T20:03:34.591Z,6.13
2023-03-28T20:06:04.368Z,6.04
2023-03-28T20:08:34.266Z,5.99
2023-03-28T20:11:02.875Z,5.90
2023-03-28T20:13:31.426Z,5.82
2023-03-28T20:16:02.397Z,5.79
2023-03-28T20:18:32.411Z,5.77
2023-03-28T20:21:03.435Z,5.69
2023-03-28T20:23:32.775Z,5.61
2023-03-28T20:26:01.888Z,5.59
2023-03-28T20:28:31.832Z,5.59
2023-03-28T20:31:00.382Z,5.65
2023-03-28T20:33:28.827Z,5.55
2023-03-28T20:35:58.299Z,5.53
2023-03-28T20:38:30.259Z,5.44
2023-03-28T20:40:59.142Z,5.37
2023-03-28T20:43:29.321Z,5.37
2023-03-28T20:46:01.532Z,5.29
2023-03-28T20:48:36.321Z,5.33
2023-03-28T20:51:05.859Z,5.18
2023-03-28T20:53:35.424Z,5.15
2023-03-28T20:56:05.279Z,5.03
2023-03-28T20:58:38.774Z,4.94
2023-03-28T21:01:08.939Z,4.81
2023-03-28T21:03:46.489Z,4.72
2023-03-28T21:06:16.575Z,4.68
2023-03-28T21:08:47.431Z,4.55
2023-03-28T21:11:16.893Z,4.44
2023-03-28T21:13:45.186Z,4.36
2023-03-28T21:16:14.478Z,4.29
2023-03-28T21:18:42.753Z,4.29
2023-03-28T21:21:11.723Z,4.22
2023-03-28T21:23:40.479Z,4.16
2023-03-28T21:26:11.055Z,4.17
2023-03-28T21:28:39.746Z,4.16
2023-03-28T21:31:10.148Z,4.15
2023-03-28T21:33:38.968Z,4.14
2023-03-28T21:36:07.933Z,4.13
2023-03-28T21:38:36.182Z,4.14
2023-03-28T21:41:04.777Z,4.08
2023-03-28T21:43:34.973Z,4.07
2023-03-28T21:46:03.217Z,3.99
2023-03-28T21:48:31.696Z,3.96
2023-03-28T21:51:00.553Z,3.94
2023-03-28T21:53:30.563Z,4.01
2023-03-28T21:56:00.827Z,3.96
2023-03-28T21:58:30.935Z,3.91
2023-03-28T22:01:01.351Z,3.91
2023-03-28T22:03:30.169Z,3.94
2023-03-28T22:05:58.515Z,3.95
2023-03-28T22:08:27.145Z,3.87
2023-03-28T22:10:57.476Z,3.91
2023-03-28T22:13:25.676Z,3.93
2023-03-28T22:18:28.067Z,3.93
2023-03-28T22:20:56.297Z,3.92
2023-03-28T22:23:25.648Z,3.85
2023-03-28T22:25:56.480Z,3.82
2023-03-28T22:28:25.497Z,3.76
2023-03-28T22:30:54.263Z,3.75
2023-03-28T22:33:24.844Z,3.78
2023-03-28T22:35:54.391Z,3.85
2023-03-28T22:38:22.678Z,3.81
2023-03-28T22:40:51.080Z,3.73
2023-03-28T22:43:19.374Z,3.78
2023-03-28T22:45:47.719Z,3.74
2023-03-28T22:48:16.047Z,3.83
2023-03-28T22:50:45.255Z,3.80
2023-03-28T22:53:15.321Z,3.71
2023-03-28T22:55:44.572Z,3.73
2023-03-28T22:58:13.405Z,3.67
2023-03-28T23:00:43.572Z,3.67
2023-03-28T23:03:12.282Z,3.73
2023-03-28T23:05:40.444Z,3.68
2023-03-28T23:08:08.679Z,3.71
2023-03-28T23:10:38.321Z,3.70
2023-03-28T23:13:06.709Z,3.76
2023-03-28T23:15:35.104Z,3.78
2023-03-28T23:18:03.630Z,3.72
2023-03-28T23:20:31.987Z,3.80
2023-03-28T23:23:00.307Z,3.77
2023-03-28T23:25:29.069Z,3.88
2023-03-28T23:27:58.661Z,3.81
2023-03-28T23:30:27.027Z,3.76
2023-03-28T23:32:55.380Z,3.81
2023-03-28T23:35:23.736Z,3.76
2023-03-28T23:37:55.955Z,3.75
2023-03-28T23:40:30.745Z,3.62
2023-03-28T23:43:03.877Z,3.64
2023-03-28T23:45:37.725Z,3.46
2023-03-28T23:48:07.255Z,3.43
2023-03-28T23:50:35.898Z,3.37
2023-03-28T23:53:04.537Z,3.39
2023-03-28T23:55:34.907Z,3.36
2023-03-28T23:58:04.781Z,3.38
